Bainbridge, New York
Current Conditions -  °F | °C
As of 9:53 PM on Saturday 25 Oct 2014 (Local Time) from KBGM Reporting Station
Few Clouds Few Clouds  
Wind Chill: 53°   Ceiling: Unl
Heat Index: 53°   Visibility: 10mi
Dew Point: 42°   Wind: 12mph
Humidity: 66%   Direction: 290°WNW
Pressure: 29.62"   Gusts: NA
Location:  42.29°N, 75.48°W
Report Text: KBGM 260153Z 29010KT 10SM FEW065 12/06 A2962 RMK AO2 SLP033 T01170056
Loading
Personal Weather Stations






























Interactive Weather Map
Tropical Storm Tracking
New forecast layout! Learn more

10-Day Weather Forecast

Advertisements
Track Severe Weather on mobile